Emslake — V2FL4 — position and weather

sailwx.info

Track history (hours):
 
Tides and Currents Weather Stations Pressure Air Temp Water Temp Dewpoint Dewpoint Depression Visibility Wind Speed Wind Dir Waves Ship Positions

Emslake

Last reported at 2015-Jul-07 10:34 UTC. Time now 2015-Jul-07 11:07 UTC.
Position N 51°24' E 003°20'.

Length 100 m; draft 5.7 m.

Type: Cargo ship. MMSI: 305712000.

Date/timePositionNaut miles runAvg speedWind from/ knotsBaromVisibWave heightAir tempDewpointWater temp
2015-Jul-07 10:34N 51°24' E 003°20'8 8.2
2015-Jul-07 09:33N 51°24' E 003°07'9 9.4
2015-Jul-07 08:34N 51°22' E 002°52'9 8.7
2015-Jul-07 07:33N 51°22' E 002°38'8 8.2
2015-Jul-07 06:33N 51°21' E 002°25'9 9.4
2015-Jul-07 05:33N 51°16' E 002°12'1010.1
2015-Jul-07 04:34N 51°11' E 001°58'1211.6
2015-Jul-07 03:34N 51°04' E 001°43'1413.8
2015-Jul-07 02:33N 50°54' E 001°29'126 9.5
2015-Jul-06 13:18N 50°03' W 001°32'1312.3
2015-Jul-06 12:14N 49°59' W 001°52'1013.2
2015-Jul-06 11:26N 49°56' W 002°07'5912.1
2015-Jul-06 06:32N 49°33' W 003°32'1110.5
2015-Jul-06 05:31N 49°28' W 003°46'10 9.8
2015-Jul-06 04:27N 49°22' W 003°60'9 9.1
2015-Jul-06 03:28N 49°18' W 004°12'  
2015-Jul-03 11:18N 41°41' W 008°49'  
2015-Jul-01 07:12N 43°49' W 006°26'711.1
2015-Jul-01 06:32N 43°48' W 006°15'1111.1
2015-Jul-01 05:33N 43°47' W 006°00'1110.9
2015-Jul-01 04:32N 43°46' W 005°45'1110.8
2015-Jul-01 03:33N 43°46' W 005°30'1110.8
2015-Jul-01 02:33N 43°45' W 005°15'1110.6
2015-Jul-01 01:32N 43°44' W 005°01'5811.2
2015-Jun-30 20:24N 43°39' W 003°41'1011.2
2015-Jun-30 19:33N 43°38' W 003°28'2710.8
2015-Jun-30 17:03N 43°35' W 002°51'610.4
2015-Jun-30 16:26N 43°33' W 002°42'3010.5
2015-Jun-30 13:33N 43°23' W 002°03'7 0.1
2015-Jun-28 12:09N 43°19' W 001°55'12 1.5
2015-Jun-28 04:19N 43°30' W 002°02'3 3.1
2015-Jun-28 03:23N 43°32' W 002°04'6 7.7
2015-Jun-28 02:33N 43°38' W 002°08'8 7.8
2015-Jun-28 01:33N 43°45' W 002°13'8 8.0
2015-Jun-28 00:33N 43°52' W 002°19'24 7.8
2015-Jun-27 21:32N 44°13' W 002°34'12 8.2
2015-Jun-27 20:08N 44°23' W 002°42'15 8.4
2015-Jun-27 18:18N 44°37' W 002°51'  
Track history (hours):
 
Tides and Currents Weather Stations Pressure Air Temp Water Temp Dewpoint Dewpoint Depression Visibility Wind Speed Wind Dir Waves Ship Positions

Emslake

Last reported at 2015-Jul-07 10:34 UTC. Time now 2015-Jul-07 11:07 UTC.
Position N 51°24' E 003°20'.

Length 100 m; draft 5.7 m.

Type: Cargo ship. MMSI: 305712000.

Date/timePositionNaut miles runAvg speedWind from/ knotsBaromVisibWave heightAir tempDewpointWater temp
2015-Jul-07 10:34N 51°24' E 003°20'8 8.2
2015-Jul-07 09:33N 51°24' E 003°07'9 9.4
2015-Jul-07 08:34N 51°22' E 002°52'9 8.7
2015-Jul-07 07:33N 51°22' E 002°38'8 8.2
2015-Jul-07 06:33N 51°21' E 002°25'9 9.4
2015-Jul-07 05:33N 51°16' E 002°12'1010.1
2015-Jul-07 04:34N 51°11' E 001°58'1211.6
2015-Jul-07 03:34N 51°04' E 001°43'1413.8
2015-Jul-07 02:33N 50°54' E 001°29'126 9.5
2015-Jul-06 13:18N 50°03' W 001°32'1312.3
2015-Jul-06 12:14N 49°59' W 001°52'1013.2
2015-Jul-06 11:26N 49°56' W 002°07'5912.1
2015-Jul-06 06:32N 49°33' W 003°32'1110.5
2015-Jul-06 05:31N 49°28' W 003°46'10 9.8
2015-Jul-06 04:27N 49°22' W 003°60'9 9.1
2015-Jul-06 03:28N 49°18' W 004°12'  
2015-Jul-03 11:18N 41°41' W 008°49'  
2015-Jul-01 07:12N 43°49' W 006°26'711.1
2015-Jul-01 06:32N 43°48' W 006°15'1111.1
2015-Jul-01 05:33N 43°47' W 006°00'1110.9
2015-Jul-01 04:32N 43°46' W 005°45'1110.8
2015-Jul-01 03:33N 43°46' W 005°30'1110.8
2015-Jul-01 02:33N 43°45' W 005°15'1110.6
2015-Jul-01 01:32N 43°44' W 005°01'5811.2
2015-Jun-30 20:24N 43°39' W 003°41'1011.2
2015-Jun-30 19:33N 43°38' W 003°28'2710.8
2015-Jun-30 17:03N 43°35' W 002°51'610.4
2015-Jun-30 16:26N 43°33' W 002°42'3010.5
2015-Jun-30 13:33N 43°23' W 002°03'7 0.1
2015-Jun-28 12:09N 43°19' W 001°55'12 1.5
2015-Jun-28 04:19N 43°30' W 002°02'3 3.1
2015-Jun-28 03:23N 43°32' W 002°04'6 7.7
2015-Jun-28 02:33N 43°38' W 002°08'8 7.8
2015-Jun-28 01:33N 43°45' W 002°13'8 8.0
2015-Jun-28 00:33N 43°52' W 002°19'24 7.8
2015-Jun-27 21:32N 44°13' W 002°34'12 8.2
2015-Jun-27 20:08N 44°23' W 002°42'15 8.4
2015-Jun-27 18:18N 44°37' W 002°51'  

Dump ship's entire track history